sensor_id;sensor_type;location;lat;lon;timestamp;P1;durP1;ratioP1;P2;durP2;ratioP2
30173;SDS011;16985;50.814;8.530;2023-04-24T00:00:06;2.00;;;1.67;;
30173;SDS011;16985;50.814;8.530;2023-04-24T00:02:37;1.63;;;1.50;;
30173;SDS011;16985;50.814;8.530;2023-04-24T00:05:06;2.95;;;1.58;;
30173;SDS011;16985;50.814;8.530;2023-04-24T00:07:33;3.50;;;1.65;;
30173;SDS011;16985;50.814;8.530;2023-04-24T00:10:12;2.13;;;1.60;;
30173;SDS011;16985;50.814;8.530;2023-04-24T00:12:38;2.22;;;1.20;;
30173;SDS011;16985;50.814;8.530;2023-04-24T00:15:04;2.33;;;1.13;;
30173;SDS011;16985;50.814;8.530;2023-04-24T00:17:31;2.25;;;1.45;;
30173;SDS011;16985;50.814;8.530;2023-04-24T00:19:57;1.25;;;1.15;;
30173;SDS011;16985;50.814;8.530;2023-04-24T00:22:27;6.43;;;1.40;;
30173;SDS011;16985;50.814;8.530;2023-04-24T00:24:54;2.00;;;1.73;;
30173;SDS011;16985;50.814;8.530;2023-04-24T00:29:57;4.57;;;1.33;;
30173;SDS011;16985;50.814;8.530;2023-04-24T00:32:23;6.05;;;1.42;;
30173;SDS011;16985;50.814;8.530;2023-04-24T00:34:49;5.57;;;1.27;;
30173;SDS011;16985;50.814;8.530;2023-04-24T00:37:15;1.30;;;1.17;;
30173;SDS011;16985;50.814;8.530;2023-04-24T00:39:43;2.42;;;1.48;;
30173;SDS011;16985;50.814;8.530;2023-04-24T00:42:09;1.73;;;1.50;;
30173;SDS011;16985;50.814;8.530;2023-04-24T00:44:35;2.10;;;1.50;;
30173;SDS011;16985;50.814;8.530;2023-04-24T00:47:00;1.73;;;1.35;;
30173;SDS011;16985;50.814;8.530;2023-04-24T00:49:26;1.92;;;1.45;;
30173;SDS011;16985;50.814;8.530;2023-04-24T00:51:52;2.22;;;1.35;;
30173;SDS011;16985;50.814;8.530;2023-04-24T00:54:19;2.50;;;1.33;;
30173;SDS011;16985;50.814;8.530;2023-04-24T00:56:45;2.25;;;1.52;;
30173;SDS011;16985;50.814;8.530;2023-04-24T00:59:11;2.35;;;1.30;;
30173;SDS011;16985;50.814;8.530;2023-04-24T01:01:45;3.42;;;1.52;;
30173;SDS011;16985;50.814;8.530;2023-04-24T01:04:11;3.08;;;1.35;;
30173;SDS011;16985;50.814;8.530;2023-04-24T01:06:39;2.65;;;1.50;;
30173;SDS011;16985;50.814;8.530;2023-04-24T01:09:05;2.33;;;1.58;;
30173;SDS011;16985;50.814;8.530;2023-04-24T01:11:33;2.13;;;1.65;;
30173;SDS011;16985;50.814;8.530;2023-04-24T01:13:59;2.65;;;1.58;;
30173;SDS011;16985;50.814;8.530;2023-04-24T01:16:25;1.67;;;1.40;;
30173;SDS011;16985;50.814;8.530;2023-04-24T01:18:52;1.25;;;1.15;;
30173;SDS011;16985;50.814;8.530;2023-04-24T01:21:36;2.03;;;1.73;;
30173;SDS011;16985;50.814;8.530;2023-04-24T01:24:03;2.88;;;1.55;;
30173;SDS011;16985;50.814;8.530;2023-04-24T01:26:30;2.45;;;1.27;;
30173;SDS011;16985;50.814;8.530;2023-04-24T01:28:56;5.30;;;1.58;;
30173;SDS011;16985;50.814;8.530;2023-04-24T01:31:22;1.70;;;1.25;;
30173;SDS011;16985;50.814;8.530;2023-04-24T01:33:49;1.65;;;1.27;;
30173;SDS011;16985;50.814;8.530;2023-04-24T01:36:16;4.43;;;1.85;;
30173;SDS011;16985;50.814;8.530;2023-04-24T01:38:42;2.85;;;1.25;;
30173;SDS011;16985;50.814;8.530;2023-04-24T01:41:09;1.40;;;1.30;;
30173;SDS011;16985;50.814;8.530;2023-04-24T01:43:35;1.75;;;1.20;;
30173;SDS011;16985;50.814;8.530;2023-04-24T01:46:01;3.05;;;1.48;;
30173;SDS011;16985;50.814;8.530;2023-04-24T01:48:27;2.28;;;1.13;;
30173;SDS011;16985;50.814;8.530;2023-04-24T01:50:53;1.88;;;1.20;;
30173;SDS011;16985;50.814;8.530;2023-04-24T01:53:19;1.80;;;1.13;;
30173;SDS011;16985;50.814;8.530;2023-04-24T01:55:45;1.92;;;1.23;;
30173;SDS011;16985;50.814;8.530;2023-04-24T01:58:12;1.02;;;0.90;;
30173;SDS011;16985;50.814;8.530;2023-04-24T02:00:38;1.63;;;1.10;;
30173;SDS011;16985;50.814;8.530;2023-04-24T02:03:03;1.40;;;1.30;;
30173;SDS011;16985;50.814;8.530;2023-04-24T02:05:29;2.78;;;1.33;;
30173;SDS011;16985;50.814;8.530;2023-04-24T02:07:55;2.67;;;1.50;;
30173;SDS011;16985;50.814;8.530;2023-04-24T02:10:21;1.63;;;1.25;;
30173;SDS011;16985;50.814;8.530;2023-04-24T02:12:47;2.25;;;1.50;;
30173;SDS011;16985;50.814;8.530;2023-04-24T02:15:13;3.65;;;1.73;;
30173;SDS011;16985;50.814;8.530;2023-04-24T02:17:40;2.45;;;1.95;;
30173;SDS011;16985;50.814;8.530;2023-04-24T02:20:08;2.47;;;1.40;;
30173;SDS011;16985;50.814;8.530;2023-04-24T02:22:37;2.15;;;1.40;;
30173;SDS011;16985;50.814;8.530;2023-04-24T02:25:03;1.75;;;1.30;;
30173;SDS011;16985;50.814;8.530;2023-04-24T02:27:29;4.32;;;1.30;;
30173;SDS011;16985;50.814;8.530;2023-04-24T02:29:55;5.03;;;1.10;;
30173;SDS011;16985;50.814;8.530;2023-04-24T02:32:21;1.90;;;1.25;;
30173;SDS011;16985;50.814;8.530;2023-04-24T02:34:47;2.00;;;1.20;;
30173;SDS011;16985;50.814;8.530;2023-04-24T02:37:13;1.95;;;1.75;;
30173;SDS011;16985;50.814;8.530;2023-04-24T02:39:38;2.95;;;1.35;;
30173;SDS011;16985;50.814;8.530;2023-04-24T02:42:04;2.25;;;1.55;;
30173;SDS011;16985;50.814;8.530;2023-04-24T02:44:30;1.48;;;1.27;;
30173;SDS011;16985;50.814;8.530;2023-04-24T02:46:56;3.17;;;1.60;;
30173;SDS011;16985;50.814;8.530;2023-04-24T02:49:22;4.30;;;1.67;;
30173;SDS011;16985;50.814;8.530;2023-04-24T02:51:47;4.10;;;1.80;;
30173;SDS011;16985;50.814;8.530;2023-04-24T02:54:13;3.53;;;1.45;;
30173;SDS011;16985;50.814;8.530;2023-04-24T02:56:39;3.60;;;1.55;;
30173;SDS011;16985;50.814;8.530;2023-04-24T02:59:06;2.22;;;1.50;;
30173;SDS011;16985;50.814;8.530;2023-04-24T03:01:33;2.38;;;1.52;;
30173;SDS011;16985;50.814;8.530;2023-04-24T03:03:59;1.45;;;1.20;;
30173;SDS011;16985;50.814;8.530;2023-04-24T03:06:25;1.60;;;1.50;;
30173;SDS011;16985;50.814;8.530;2023-04-24T03:08:52;1.75;;;1.42;;
30173;SDS011;16985;50.814;8.530;2023-04-24T03:11:18;2.53;;;1.75;;
30173;SDS011;16985;50.814;8.530;2023-04-24T03:13:44;1.95;;;1.70;;
30173;SDS011;16985;50.814;8.530;2023-04-24T03:16:10;2.60;;;2.05;;
30173;SDS011;16985;50.814;8.530;2023-04-24T03:18:35;1.88;;;1.38;;
30173;SDS011;16985;50.814;8.530;2023-04-24T03:21:02;2.05;;;1.60;;
30173;SDS011;16985;50.814;8.530;2023-04-24T03:23:29;2.70;;;1.65;;
30173;SDS011;16985;50.814;8.530;2023-04-24T03:25:55;2.67;;;1.80;;
30173;SDS011;16985;50.814;8.530;2023-04-24T03:28:21;3.28;;;1.70;;
30173;SDS011;16985;50.814;8.530;2023-04-24T03:30:53;3.42;;;1.52;;
30173;SDS011;16985;50.814;8.530;2023-04-24T03:33:20;2.45;;;1.52;;
30173;SDS011;16985;50.814;8.530;2023-04-24T03:35:55;1.52;;;1.30;;
30173;SDS011;16985;50.814;8.530;2023-04-24T03:38:21;2.08;;;1.48;;
30173;SDS011;16985;50.814;8.530;2023-04-24T03:40:54;2.10;;;1.67;;
30173;SDS011;16985;50.814;8.530;2023-04-24T03:43:33;2.78;;;1.58;;
30173;SDS011;16985;50.814;8.530;2023-04-24T03:46:01;3.15;;;2.10;;
30173;SDS011;16985;50.814;8.530;2023-04-24T03:48:28;3.70;;;1.60;;
30173;SDS011;16985;50.814;8.530;2023-04-24T03:50:54;1.90;;;1.73;;
30173;SDS011;16985;50.814;8.530;2023-04-24T03:53:20;2.83;;;1.75;;
30173;SDS011;16985;50.814;8.530;2023-04-24T03:55:53;1.73;;;1.60;;
30173;SDS011;16985;50.814;8.530;2023-04-24T03:58:20;1.77;;;1.67;;
30173;SDS011;16985;50.814;8.530;2023-04-24T04:00:45;2.65;;;1.50;;
30173;SDS011;16985;50.814;8.530;2023-04-24T04:03:35;1.52;;;1.40;;
30173;SDS011;16985;50.814;8.530;2023-04-24T04:06:01;2.55;;;1.50;;
30173;SDS011;16985;50.814;8.530;2023-04-24T04:08:27;1.77;;;1.35;;
30173;SDS011;16985;50.814;8.530;2023-04-24T04:10:53;1.95;;;1.42;;
30173;SDS011;16985;50.814;8.530;2023-04-24T04:13:19;1.70;;;1.58;;
30173;SDS011;16985;50.814;8.530;2023-04-24T04:15:45;1.80;;;1.20;;
30173;SDS011;16985;50.814;8.530;2023-04-24T04:18:11;1.77;;;1.63;;
30173;SDS011;16985;50.814;8.530;2023-04-24T04:20:37;2.53;;;1.80;;
30173;SDS011;16985;50.814;8.530;2023-04-24T04:23:03;2.90;;;1.70;;
30173;SDS011;16985;50.814;8.530;2023-04-24T04:28:07;5.80;;;2.00;;
30173;SDS011;16985;50.814;8.530;2023-04-24T04:30:33;3.85;;;1.92;;
30173;SDS011;16985;50.814;8.530;2023-04-24T04:33:05;6.43;;;2.22;;
30173;SDS011;16985;50.814;8.530;2023-04-24T04:35:32;3.95;;;2.05;;
30173;SDS011;16985;50.814;8.530;2023-04-24T04:37:58;2.47;;;1.58;;
30173;SDS011;16985;50.814;8.530;2023-04-24T04:40:39;1.92;;;1.67;;
30173;SDS011;16985;50.814;8.530;2023-04-24T04:43:06;3.35;;;2.40;;
30173;SDS011;16985;50.814;8.530;2023-04-24T04:45:39;3.30;;;2.10;;
30173;SDS011;16985;50.814;8.530;2023-04-24T04:48:25;4.25;;;2.20;;
30173;SDS011;16985;50.814;8.530;2023-04-24T04:51:06;4.05;;;2.25;;
30173;SDS011;16985;50.814;8.530;2023-04-24T04:53:32;3.88;;;2.78;;
30173;SDS011;16985;50.814;8.530;2023-04-24T04:55:58;2.33;;;1.90;;
30173;SDS011;16985;50.814;8.530;2023-04-24T04:58:40;4.38;;;2.08;;
30173;SDS011;16985;50.814;8.530;2023-04-24T05:01:09;2.63;;;2.40;;
30173;SDS011;16985;50.814;8.530;2023-04-24T05:03:50;3.50;;;2.47;;
30173;SDS011;16985;50.814;8.530;2023-04-24T05:06:16;2.88;;;2.65;;
30173;SDS011;16985;50.814;8.530;2023-04-24T05:08:43;4.82;;;3.25;;
30173;SDS011;16985;50.814;8.530;2023-04-24T05:11:18;4.80;;;2.90;;
30173;SDS011;16985;50.814;8.530;2023-04-24T05:13:44;3.17;;;2.83;;
30173;SDS011;16985;50.814;8.530;2023-04-24T05:16:21;3.55;;;2.78;;
30173;SDS011;16985;50.814;8.530;2023-04-24T05:18:49;3.90;;;3.05;;
30173;SDS011;16985;50.814;8.530;2023-04-24T05:21:18;6.10;;;3.70;;
30173;SDS011;16985;50.814;8.530;2023-04-24T05:23:48;3.30;;;3.00;;
30173;SDS011;16985;50.814;8.530;2023-04-24T05:26:20;6.80;;;3.70;;
30173;SDS011;16985;50.814;8.530;2023-04-24T05:28:48;4.70;;;4.03;;
30173;SDS011;16985;50.814;8.530;2023-04-24T05:31:15;5.07;;;3.60;;
30173;SDS011;16985;50.814;8.530;2023-04-24T05:33:43;4.32;;;3.45;;
30173;SDS011;16985;50.814;8.530;2023-04-24T05:36:09;4.95;;;3.05;;
30173;SDS011;16985;50.814;8.530;2023-04-24T05:38:38;5.30;;;3.30;;
30173;SDS011;16985;50.814;8.530;2023-04-24T05:41:19;5.10;;;3.83;;
30173;SDS011;16985;50.814;8.530;2023-04-24T05:43:46;3.45;;;3.15;;
30173;SDS011;16985;50.814;8.530;2023-04-24T05:46:12;5.45;;;4.38;;
30173;SDS011;16985;50.814;8.530;2023-04-24T05:48:38;5.88;;;3.40;;
30173;SDS011;16985;50.814;8.530;2023-04-24T05:51:05;4.30;;;3.70;;
30173;SDS011;16985;50.814;8.530;2023-04-24T05:53:30;5.55;;;3.97;;
30173;SDS011;16985;50.814;8.530;2023-04-24T05:55:56;4.78;;;3.88;;
30173;SDS011;16985;50.814;8.530;2023-04-24T05:58:23;7.75;;;4.20;;
30173;SDS011;16985;50.814;8.530;2023-04-24T06:00:49;7.07;;;4.32;;
30173;SDS011;16985;50.814;8.530;2023-04-24T06:03:16;6.03;;;4.30;;
30173;SDS011;16985;50.814;8.530;2023-04-24T06:05:41;5.13;;;3.85;;
30173;SDS011;16985;50.814;8.530;2023-04-24T06:08:07;5.57;;;3.88;;
30173;SDS011;16985;50.814;8.530;2023-04-24T06:10:37;4.72;;;3.63;;
30173;SDS011;16985;50.814;8.530;2023-04-24T06:13:08;4.22;;;3.20;;
30173;SDS011;16985;50.814;8.530;2023-04-24T06:15:37;6.07;;;4.05;;
30173;SDS011;16985;50.814;8.530;2023-04-24T06:18:08;5.78;;;4.00;;
30173;SDS011;16985;50.814;8.530;2023-04-24T06:20:36;6.28;;;4.57;;
30173;SDS011;16985;50.814;8.530;2023-04-24T06:23:02;7.53;;;4.25;;
30173;SDS011;16985;50.814;8.530;2023-04-24T06:25:28;7.53;;;4.10;;
30173;SDS011;16985;50.814;8.530;2023-04-24T06:27:54;4.72;;;3.85;;
30173;SDS011;16985;50.814;8.530;2023-04-24T06:30:20;6.30;;;4.18;;
30173;SDS011;16985;50.814;8.530;2023-04-24T06:32:46;5.28;;;3.80;;
30173;SDS011;16985;50.814;8.530;2023-04-24T06:35:14;9.75;;;4.18;;
30173;SDS011;16985;50.814;8.530;2023-04-24T06:37:41;4.50;;;3.80;;
30173;SDS011;16985;50.814;8.530;2023-04-24T06:40:10;5.13;;;4.28;;
30173;SDS011;16985;50.814;8.530;2023-04-24T06:42:36;5.18;;;4.20;;
30173;SDS011;16985;50.814;8.530;2023-04-24T06:45:03;4.60;;;3.75;;
30173;SDS011;16985;50.814;8.530;2023-04-24T06:47:30;7.00;;;4.32;;
30173;SDS011;16985;50.814;8.530;2023-04-24T06:49:56;7.15;;;4.43;;
30173;SDS011;16985;50.814;8.530;2023-04-24T06:52:22;5.82;;;4.60;;
30173;SDS011;16985;50.814;8.530;2023-04-24T06:54:47;5.57;;;4.18;;
30173;SDS011;16985;50.814;8.530;2023-04-24T06:57:13;7.38;;;4.80;;
30173;SDS011;16985;50.814;8.530;2023-04-24T06:59:41;6.78;;;3.92;;
30173;SDS011;16985;50.814;8.530;2023-04-24T07:02:07;5.63;;;4.15;;
30173;SDS011;16985;50.814;8.530;2023-04-24T07:04:33;4.88;;;4.35;;
30173;SDS011;16985;50.814;8.530;2023-04-24T07:06:59;6.13;;;4.28;;
30173;SDS011;16985;50.814;8.530;2023-04-24T07:09:25;8.10;;;4.20;;
30173;SDS011;16985;50.814;8.530;2023-04-24T07:11:52;6.63;;;4.07;;
30173;SDS011;16985;50.814;8.530;2023-04-24T07:14:18;6.15;;;4.53;;
30173;SDS011;16985;50.814;8.530;2023-04-24T07:16:45;10.65;;;5.70;;
30173;SDS011;16985;50.814;8.530;2023-04-24T07:19:12;6.45;;;4.85;;
30173;SDS011;16985;50.814;8.530;2023-04-24T07:21:38;8.05;;;4.82;;
30173;SDS011;16985;50.814;8.530;2023-04-24T07:24:05;8.30;;;5.15;;
30173;SDS011;16985;50.814;8.530;2023-04-24T07:26:34;5.53;;;4.15;;
30173;SDS011;16985;50.814;8.530;2023-04-24T07:29:17;6.47;;;4.63;;
30173;SDS011;16985;50.814;8.530;2023-04-24T07:31:42;6.78;;;4.65;;
30173;SDS011;16985;50.814;8.530;2023-04-24T07:34:08;8.13;;;4.78;;
30173;SDS011;16985;50.814;8.530;2023-04-24T07:36:35;5.88;;;4.55;;
30173;SDS011;16985;50.814;8.530;2023-04-24T07:39:03;5.68;;;4.60;;
30173;SDS011;16985;50.814;8.530;2023-04-24T07:41:30;4.78;;;4.10;;
30173;SDS011;16985;50.814;8.530;2023-04-24T07:44:10;8.00;;;4.97;;
30173;SDS011;16985;50.814;8.530;2023-04-24T07:46:36;7.38;;;5.03;;
30173;SDS011;16985;50.814;8.530;2023-04-24T07:49:02;7.30;;;4.80;;
30173;SDS011;16985;50.814;8.530;2023-04-24T07:51:28;6.55;;;4.47;;
30173;SDS011;16985;50.814;8.530;2023-04-24T07:53:54;8.43;;;4.10;;
30173;SDS011;16985;50.814;8.530;2023-04-24T07:56:20;6.03;;;4.22;;
30173;SDS011;16985;50.814;8.530;2023-04-24T07:58:46;8.95;;;4.43;;
30173;SDS011;16985;50.814;8.530;2023-04-24T08:01:12;5.65;;;4.85;;
30173;SDS011;16985;50.814;8.530;2023-04-24T08:03:38;6.18;;;4.47;;
30173;SDS011;16985;50.814;8.530;2023-04-24T08:06:03;6.65;;;4.47;;
30173;SDS011;16985;50.814;8.530;2023-04-24T08:08:29;5.43;;;4.35;;
30173;SDS011;16985;50.814;8.530;2023-04-24T08:10:55;5.35;;;4.35;;
30173;SDS011;16985;50.814;8.530;2023-04-24T08:13:21;6.47;;;4.30;;
30173;SDS011;16985;50.814;8.530;2023-04-24T08:15:47;5.90;;;4.28;;
30173;SDS011;16985;50.814;8.530;2023-04-24T08:18:13;5.63;;;4.13;;
30173;SDS011;16985;50.814;8.530;2023-04-24T08:20:40;4.15;;;3.60;;
30173;SDS011;16985;50.814;8.530;2023-04-24T08:23:06;5.28;;;3.38;;
30173;SDS011;16985;50.814;8.530;2023-04-24T08:25:32;3.95;;;3.55;;
30173;SDS011;16985;50.814;8.530;2023-04-24T08:28:00;6.10;;;4.20;;
30173;SDS011;16985;50.814;8.530;2023-04-24T08:30:28;5.20;;;3.95;;
30173;SDS011;16985;50.814;8.530;2023-04-24T08:32:54;6.43;;;3.28;;
30173;SDS011;16985;50.814;8.530;2023-04-24T08:35:21;5.65;;;3.67;;
30173;SDS011;16985;50.814;8.530;2023-04-24T08:37:47;6.45;;;3.88;;
30173;SDS011;16985;50.814;8.530;2023-04-24T08:40:14;6.80;;;4.15;;
30173;SDS011;16985;50.814;8.530;2023-04-24T08:42:41;6.57;;;4.07;;
30173;SDS011;16985;50.814;8.530;2023-04-24T08:45:09;6.07;;;3.88;;
30173;SDS011;16985;50.814;8.530;2023-04-24T08:47:37;5.15;;;3.88;;
30173;SDS011;16985;50.814;8.530;2023-04-24T08:50:07;9.93;;;4.28;;
30173;SDS011;16985;50.814;8.530;2023-04-24T08:52:34;6.53;;;3.20;;
30173;SDS011;16985;50.814;8.530;2023-04-24T08:55:01;4.75;;;3.03;;
30173;SDS011;16985;50.814;8.530;2023-04-24T08:57:27;6.35;;;3.67;;
30173;SDS011;16985;50.814;8.530;2023-04-24T08:59:55;8.32;;;5.03;;
30173;SDS011;16985;50.814;8.530;2023-04-24T09:04:49;5.85;;;3.58;;
30173;SDS011;16985;50.814;8.530;2023-04-24T09:07:16;9.23;;;3.65;;
30173;SDS011;16985;50.814;8.530;2023-04-24T09:09:43;4.13;;;3.20;;
30173;SDS011;16985;50.814;8.530;2023-04-24T09:12:09;5.05;;;3.20;;
30173;SDS011;16985;50.814;8.530;2023-04-24T09:14:36;4.05;;;2.70;;
30173;SDS011;16985;50.814;8.530;2023-04-24T09:17:04;4.30;;;2.72;;
30173;SDS011;16985;50.814;8.530;2023-04-24T09:19:31;5.82;;;2.42;;
30173;SDS011;16985;50.814;8.530;2023-04-24T09:21:57;4.35;;;2.88;;
30173;SDS011;16985;50.814;8.530;2023-04-24T09:24:23;5.03;;;2.65;;
30173;SDS011;16985;50.814;8.530;2023-04-24T09:26:49;3.70;;;2.22;;
30173;SDS011;16985;50.814;8.530;2023-04-24T09:29:23;2.90;;;2.38;;
30173;SDS011;16985;50.814;8.530;2023-04-24T09:31:50;4.40;;;2.08;;
30173;SDS011;16985;50.814;8.530;2023-04-24T09:34:20;4.82;;;2.00;;
30173;SDS011;16985;50.814;8.530;2023-04-24T09:36:48;2.15;;;1.70;;
30173;SDS011;16985;50.814;8.530;2023-04-24T09:39:15;4.20;;;2.17;;
30173;SDS011;16985;50.814;8.530;2023-04-24T09:41:48;2.75;;;2.20;;
30173;SDS011;16985;50.814;8.530;2023-04-24T09:44:19;2.50;;;1.77;;
30173;SDS011;16985;50.814;8.530;2023-04-24T09:46:57;3.05;;;1.80;;
30173;SDS011;16985;50.814;8.530;2023-04-24T09:49:24;3.10;;;1.60;;
30173;SDS011;16985;50.814;8.530;2023-04-24T09:52:08;3.42;;;2.33;;
30173;SDS011;16985;50.814;8.530;2023-04-24T09:54:35;5.63;;;1.65;;
30173;SDS011;16985;50.814;8.530;2023-04-24T09:57:02;2.58;;;1.77;;
30173;SDS011;16985;50.814;8.530;2023-04-24T09:59:29;1.73;;;1.50;;
30173;SDS011;16985;50.814;8.530;2023-04-24T10:01:55;2.20;;;1.55;;
30173;SDS011;16985;50.814;8.530;2023-04-24T10:04:23;1.95;;;1.58;;
30173;SDS011;16985;50.814;8.530;2023-04-24T10:06:51;2.35;;;1.55;;
30173;SDS011;16985;50.814;8.530;2023-04-24T10:09:20;1.50;;;1.40;;
30173;SDS011;16985;50.814;8.530;2023-04-24T10:11:50;1.08;;;1.00;;
30173;SDS011;16985;50.814;8.530;2023-04-24T10:14:22;1.52;;;1.30;;
30173;SDS011;16985;50.814;8.530;2023-04-24T10:16:50;1.45;;;1.30;;
30173;SDS011;16985;50.814;8.530;2023-04-24T10:19:19;1.02;;;0.93;;
30173;SDS011;16985;50.814;8.530;2023-04-24T10:21:45;1.67;;;1.13;;
30173;SDS011;16985;50.814;8.530;2023-04-24T10:24:15;1.63;;;1.10;;
30173;SDS011;16985;50.814;8.530;2023-04-24T10:26:43;0.70;;;0.70;;
30173;SDS011;16985;50.814;8.530;2023-04-24T10:29:10;0.82;;;0.80;;
30173;SDS011;16985;50.814;8.530;2023-04-24T10:31:38;0.80;;;0.80;;
30173;SDS011;16985;50.814;8.530;2023-04-24T10:34:08;1.83;;;0.70;;
30173;SDS011;16985;50.814;8.530;2023-04-24T10:36:35;0.70;;;0.70;;
30173;SDS011;16985;50.814;8.530;2023-04-24T10:39:14;0.73;;;0.70;;
30173;SDS011;16985;50.814;8.530;2023-04-24T10:41:41;0.60;;;0.60;;
30173;SDS011;16985;50.814;8.530;2023-04-24T10:44:07;0.75;;;0.63;;
30173;SDS011;16985;50.814;8.530;2023-04-24T10:46:37;1.30;;;0.70;;
30173;SDS011;16985;50.814;8.530;2023-04-24T10:49:07;0.47;;;0.47;;
30173;SDS011;16985;50.814;8.530;2023-04-24T10:52:09;0.65;;;0.60;;
30173;SDS011;16985;50.814;8.530;2023-04-24T10:54:36;0.50;;;0.50;;
30173;SDS011;16985;50.814;8.530;2023-04-24T11:02:40;0.50;;;0.50;;
30173;SDS011;16985;50.814;8.530;2023-04-24T11:05:14;0.63;;;0.60;;
30173;SDS011;16985;50.814;8.530;2023-04-24T11:10:54;6.22;;;0.70;;
30173;SDS011;16985;50.814;8.530;2023-04-24T11:16:23;0.40;;;0.40;;
30173;SDS011;16985;50.814;8.530;2023-04-24T11:21:48;3.42;;;0.80;;
30173;SDS011;16985;50.814;8.530;2023-04-24T11:24:37;0.70;;;0.70;;
30173;SDS011;16985;50.814;8.530;2023-04-24T11:27:20;0.70;;;0.70;;
30173;SDS011;16985;50.814;8.530;2023-04-24T11:32:28;0.57;;;0.57;;
30173;SDS011;16985;50.814;8.530;2023-04-24T11:37:38;1.15;;;0.70;;
30173;SDS011;16985;50.814;8.530;2023-04-24T11:40:08;1.75;;;0.90;;
30173;SDS011;16985;50.814;8.530;2023-04-24T11:42:40;0.75;;;0.75;;
30173;SDS011;16985;50.814;8.530;2023-04-24T11:45:12;0.80;;;0.75;;
30173;SDS011;16985;50.814;8.530;2023-04-24T11:47:49;1.83;;;1.10;;
30173;SDS011;16985;50.814;8.530;2023-04-24T11:50:16;1.05;;;0.90;;
30173;SDS011;16985;50.814;8.530;2023-04-24T11:57:42;1.13;;;0.98;;
30173;SDS011;16985;50.814;8.530;2023-04-24T12:00:20;1.25;;;1.13;;
30173;SDS011;16985;50.814;8.530;2023-04-24T12:02:47;1.42;;;1.00;;
30173;SDS011;16985;50.814;8.530;2023-04-24T12:05:23;1.58;;;1.48;;
30173;SDS011;16985;50.814;8.530;2023-04-24T12:07:51;1.48;;;1.25;;
30173;SDS011;16985;50.814;8.530;2023-04-24T12:10:21;3.17;;;1.30;;
30173;SDS011;16985;50.814;8.530;2023-04-24T12:12:52;2.97;;;1.77;;
30173;SDS011;16985;50.814;8.530;2023-04-24T12:15:19;2.33;;;1.90;;
30173;SDS011;16985;50.814;8.530;2023-04-24T12:17:46;3.47;;;2.00;;
30173;SDS011;16985;50.814;8.530;2023-04-24T12:20:32;4.60;;;2.75;;
30173;SDS011;16985;50.814;8.530;2023-04-24T12:23:01;5.75;;;2.38;;
30173;SDS011;16985;50.814;8.530;2023-04-24T12:25:36;2.65;;;2.15;;
30173;SDS011;16985;50.814;8.530;2023-04-24T12:30:30;4.53;;;2.00;;
30173;SDS011;16985;50.814;8.530;2023-04-24T12:32:59;5.07;;;2.78;;
30173;SDS011;16985;50.814;8.530;2023-04-24T12:35:34;2.78;;;2.20;;
30173;SDS011;16985;50.814;8.530;2023-04-24T12:38:07;4.45;;;2.58;;
30173;SDS011;16985;50.814;8.530;2023-04-24T12:40:35;7.45;;;3.15;;
30173;SDS011;16985;50.814;8.530;2023-04-24T12:43:01;6.78;;;3.28;;
30173;SDS011;16985;50.814;8.530;2023-04-24T12:45:38;3.03;;;2.35;;
30173;SDS011;16985;50.814;8.530;2023-04-24T12:48:04;6.65;;;2.97;;
30173;SDS011;16985;50.814;8.530;2023-04-24T12:50:30;4.70;;;2.75;;
30173;SDS011;16985;50.814;8.530;2023-04-24T12:52:55;5.15;;;2.88;;
30173;SDS011;16985;50.814;8.530;2023-04-24T12:55:21;7.82;;;2.78;;
30173;SDS011;16985;50.814;8.530;2023-04-24T12:57:47;4.40;;;2.30;;
30173;SDS011;16985;50.814;8.530;2023-04-24T13:00:13;3.00;;;2.35;;
30173;SDS011;16985;50.814;8.530;2023-04-24T13:02:39;4.60;;;2.17;;
30173;SDS011;16985;50.814;8.530;2023-04-24T13:05:05;4.07;;;2.53;;
30173;SDS011;16985;50.814;8.530;2023-04-24T13:07:33;5.07;;;2.28;;
30173;SDS011;16985;50.814;8.530;2023-04-24T13:09:59;3.65;;;2.40;;
30173;SDS011;16985;50.814;8.530;2023-04-24T13:12:25;4.20;;;2.33;;
30173;SDS011;16985;50.814;8.530;2023-04-24T13:14:51;5.68;;;1.77;;
30173;SDS011;16985;50.814;8.530;2023-04-24T13:17:18;6.90;;;2.35;;
30173;SDS011;16985;50.814;8.530;2023-04-24T13:19:44;3.92;;;2.10;;
30173;SDS011;16985;50.814;8.530;2023-04-24T13:22:11;4.07;;;2.00;;
30173;SDS011;16985;50.814;8.530;2023-04-24T13:24:37;3.65;;;1.92;;
30173;SDS011;16985;50.814;8.530;2023-04-24T13:27:08;4.57;;;2.45;;
30173;SDS011;16985;50.814;8.530;2023-04-24T13:29:34;5.50;;;2.50;;
30173;SDS011;16985;50.814;8.530;2023-04-24T13:32:01;4.88;;;2.20;;
30173;SDS011;16985;50.814;8.530;2023-04-24T13:34:26;8.07;;;2.67;;
30173;SDS011;16985;50.814;8.530;2023-04-24T13:36:53;7.63;;;2.47;;
30173;SDS011;16985;50.814;8.530;2023-04-24T13:39:21;7.25;;;3.13;;
30173;SDS011;16985;50.814;8.530;2023-04-24T13:41:47;5.28;;;2.60;;
30173;SDS011;16985;50.814;8.530;2023-04-24T13:44:14;6.13;;;2.67;;
30173;SDS011;16985;50.814;8.530;2023-04-24T13:46:41;9.32;;;3.53;;
30173;SDS011;16985;50.814;8.530;2023-04-24T13:51:36;9.45;;;3.47;;
30173;SDS011;16985;50.814;8.530;2023-04-24T13:54:02;7.25;;;3.42;;
30173;SDS011;16985;50.814;8.530;2023-04-24T13:56:27;5.97;;;2.70;;
30173;SDS011;16985;50.814;8.530;2023-04-24T13:58:53;4.35;;;2.80;;
30173;SDS011;16985;50.814;8.530;2023-04-24T14:01:19;5.28;;;2.78;;
30173;SDS011;16985;50.814;8.530;2023-04-24T14:03:49;5.30;;;2.78;;
30173;SDS011;16985;50.814;8.530;2023-04-24T14:06:18;4.80;;;2.60;;
30173;SDS011;16985;50.814;8.530;2023-04-24T14:08:45;6.72;;;2.70;;
30173;SDS011;16985;50.814;8.530;2023-04-24T14:11:11;5.22;;;3.28;;
30173;SDS011;16985;50.814;8.530;2023-04-24T14:13:37;8.05;;;2.88;;
30173;SDS011;16985;50.814;8.530;2023-04-24T14:16:04;5.72;;;3.95;;
30173;SDS011;16985;50.814;8.530;2023-04-24T14:18:31;5.27;;;2.97;;
30173;SDS011;16985;50.814;8.530;2023-04-24T14:20:57;11.43;;;3.40;;
30173;SDS011;16985;50.814;8.530;2023-04-24T14:23:23;6.55;;;3.17;;
30173;SDS011;16985;50.814;8.530;2023-04-24T14:25:49;8.48;;;3.00;;
30173;SDS011;16985;50.814;8.530;2023-04-24T14:28:17;5.15;;;2.60;;
30173;SDS011;16985;50.814;8.530;2023-04-24T14:30:44;5.50;;;2.95;;
30173;SDS011;16985;50.814;8.530;2023-04-24T14:33:10;5.10;;;2.97;;
30173;SDS011;16985;50.814;8.530;2023-04-24T14:35:37;4.10;;;2.13;;
30173;SDS011;16985;50.814;8.530;2023-04-24T14:38:12;3.10;;;1.85;;
30173;SDS011;16985;50.814;8.530;2023-04-24T14:40:38;2.33;;;1.65;;
30173;SDS011;16985;50.814;8.530;2023-04-24T14:43:04;2.25;;;1.95;;
30173;SDS011;16985;50.814;8.530;2023-04-24T14:45:30;2.95;;;2.08;;
30173;SDS011;16985;50.814;8.530;2023-04-24T14:47:57;5.63;;;2.03;;
30173;SDS011;16985;50.814;8.530;2023-04-24T14:50:23;3.22;;;2.00;;
30173;SDS011;16985;50.814;8.530;2023-04-24T14:52:52;4.00;;;2.38;;
30173;SDS011;16985;50.814;8.530;2023-04-24T14:55:22;3.08;;;2.13;;
30173;SDS011;16985;50.814;8.530;2023-04-24T14:57:48;4.32;;;2.50;;
30173;SDS011;16985;50.814;8.530;2023-04-24T15:00:14;2.92;;;2.03;;
30173;SDS011;16985;50.814;8.530;2023-04-24T15:02:41;8.80;;;3.55;;
30173;SDS011;16985;50.814;8.530;2023-04-24T15:05:09;8.40;;;3.50;;
30173;SDS011;16985;50.814;8.530;2023-04-24T15:07:36;4.65;;;2.78;;
30173;SDS011;16985;50.814;8.530;2023-04-24T15:10:03;6.22;;;2.85;;
30173;SDS011;16985;50.814;8.530;2023-04-24T15:12:30;5.18;;;2.92;;
30173;SDS011;16985;50.814;8.530;2023-04-24T15:14:57;10.00;;;4.07;;
30173;SDS011;16985;50.814;8.530;2023-04-24T15:17:34;9.15;;;3.67;;
30173;SDS011;16985;50.814;8.530;2023-04-24T15:20:00;7.90;;;3.67;;
30173;SDS011;16985;50.814;8.530;2023-04-24T15:22:26;6.47;;;3.85;;
30173;SDS011;16985;50.814;8.530;2023-04-24T15:24:52;6.25;;;4.00;;
30173;SDS011;16985;50.814;8.530;2023-04-24T15:27:17;7.70;;;4.00;;
30173;SDS011;16985;50.814;8.530;2023-04-24T15:29:43;9.73;;;4.80;;